This is the latest recevied weather packets stored in our database for station/object KQ4DLB-13. If no packets are shown the sender has not sent any weather packets the latest 10 day(s).
| Time | Temp. | Humidity | Pressure | Rain* | Wind** | Luminosity | Snow |
|---|---|---|---|---|---|---|---|
| 1777758602 | 14.44° C | 62% | 991 hPa | 0 mm | - | 546 W/m² | - |
| 1777758302 | 13.89° C | 63% | 991.1 hPa | 0 mm | - | 599 W/m² | - |
| 1777758002 | 14.44° C | 65% | 991 hPa | 0 mm | - | 574 W/m² | - |
| 1777757702 | 15° C | 62% | 991.2 hPa | 0 mm | - | 550 W/m² | - |
| 1777757401 | 15.56° C | 56% | 991.6 hPa | 0 mm | - | 704 W/m² | - |
| 1777757102 | 15° C | 57% | 991.3 hPa | 0 mm | - | 619 W/m² | - |
| 1777756802 | 15° C | 56% | 990.7 hPa | 0 mm | - | 161 W/m² | - |
| 1777756502 | 15° C | 57% | 990.8 hPa | 0 mm | - | 119 W/m² | - |
| 1777756202 | 15° C | 57% | 990.9 hPa | 0 mm | - | 182 W/m² | - |
| 1777755902 | 15° C | 59% | 990.9 hPa | 0 mm | - | 322 W/m² | - |
| 1777755602 | 15° C | 57% | 990.8 hPa | 0 mm | - | 278 W/m² | - |
| 1777755302 | 15.56° C | 59% | 990.7 hPa | 0 mm | - | 227 W/m² | - |
| 1777755002 | 16.11° C | 53% | 990.8 hPa | 0 mm | - | 178 W/m² | - |
| 1777754702 | 16.67° C | 50% | 990.8 hPa | 0 mm | - | - | - |
| 1777754402 | 17.22° C | 44% | 990.8 hPa | 0 mm | - | - | - |
| 1777754102 | 17.78° C | 44% | 990.7 hPa | 0 mm | - | 175 W/m² | - |
| 1777753802 | 17.78° C | 43% | 990.9 hPa | 0 mm | - | 276 W/m² | - |
| 1777753502 | 17.78° C | 42% | 991.2 hPa | 0 mm | - | 752 W/m² | - |
| 1777753202 | 17.22° C | 44% | 991.2 hPa | 0 mm | - | 818 W/m² | - |
| 1777752902 | 17.22° C | 44% | 991.4 hPa | 0 mm | - | 847 W/m² | - |
| 1777752602 | 16.67° C | 46% | 991.2 hPa | 0 mm | - | 594 W/m² | - |
| 1777752302 | 16.67° C | 47% | 991.2 hPa | 0 mm | - | 256 W/m² | - |
| 1777752002 | 16.67° C | 47% | 991.5 hPa | 0 mm | - | 512 W/m² | - |
| 1777751702 | 16.11° C | 47% | 991.7 hPa | 0 mm | - | 821 W/m² | - |
| 1777751402 | 16.11° C | 51% | 991.6 hPa | 0 mm | - | 779 W/m² | - |
* Rain latest hour (hover to see other rain measurements)
** Current wind speed in m/s (hover to see current wind gust speed)